createdAt,value
2018-01-02T00:01:21.523Z,79.44
2018-01-02T00:03:49.275Z,79.58
2018-01-02T00:06:18.777Z,79.67
2018-01-02T00:08:46.608Z,79.80
2018-01-02T00:11:14.307Z,79.70
2018-01-02T00:13:42.258Z,79.23
2018-01-02T00:16:11.873Z,78.88
2018-01-02T00:18:41.563Z,79.03
2018-01-02T00:21:09.451Z,79.07
2018-01-02T00:23:37.333Z,78.71
2018-01-02T00:26:05.210Z,78.53
2018-01-02T00:28:32.950Z,78.41
2018-01-02T00:31:03.086Z,77.82
2018-01-02T00:33:31.170Z,78.08
2018-01-02T00:35:59.897Z,77.89
2018-01-02T00:38:27.680Z,77.95
2018-01-02T00:40:57.825Z,78.15
2018-01-02T00:43:25.808Z,78.42
2018-01-02T00:45:53.881Z,78.92
2018-01-02T00:48:21.744Z,78.59
2018-01-02T00:50:49.490Z,79.22
2018-01-02T00:53:17.264Z,79.72
2018-01-02T00:55:47.302Z,79.76
2018-01-02T00:58:17.024Z,79.70
2018-01-02T01:00:47.794Z,80.38
2018-01-02T01:03:15.572Z,80.89
2018-01-02T01:05:44.964Z,81.21
2018-01-02T01:08:15.716Z,81.48
2018-01-02T01:10:43.852Z,81.63
2018-01-02T01:13:12.136Z,82.01
2018-01-02T01:15:39.970Z,82.35
2018-01-02T01:18:07.830Z,82.48
2018-01-02T01:20:35.594Z,82.55
2018-01-02T01:23:04.944Z,82.39
2018-01-02T01:25:34.678Z,82.55
2018-01-02T01:28:02.511Z,83.00
2018-01-02T01:30:30.389Z,83.71
2018-01-02T01:32:58.148Z,83.90
2018-01-02T01:35:27.000Z,84.79
2018-01-02T01:37:54.706Z,84.93
2018-01-02T01:40:23.292Z,85.19
2018-01-02T01:42:51.210Z,85.41
2018-01-02T01:45:23.475Z,85.16
2018-01-02T01:47:51.850Z,85.29
2018-01-02T01:50:20.418Z,84.92
2018-01-02T01:52:48.266Z,84.44
2018-01-02T01:55:16.039Z,84.46
2018-01-02T01:57:44.122Z,84.64
2018-01-02T02:00:11.868Z,85.50
2018-01-02T02:02:39.652Z,85.88
2018-01-02T02:05:08.334Z,86.57
2018-01-02T02:07:36.079Z,86.86
2018-01-02T02:10:05.593Z,87.25
2018-01-02T02:12:34.496Z,86.80
2018-01-02T02:15:03.102Z,86.25
2018-01-02T02:17:32.548Z,85.43
2018-01-02T02:20:02.194Z,84.67
2018-01-02T02:22:31.466Z,84.36
2018-01-02T02:24:59.771Z,84.15
2018-01-02T02:27:27.598Z,83.98
2018-01-02T02:29:56.679Z,84.22
2018-01-02T02:32:26.031Z,83.94
2018-01-02T02:34:54.857Z,83.50
2018-01-02T02:37:22.552Z,82.46
2018-01-02T02:39:50.310Z,82.60
2018-01-02T02:42:19.816Z,82.06
2018-01-02T02:44:49.203Z,82.09
2018-01-02T02:47:17.604Z,81.65
2018-01-02T02:49:45.359Z,82.14
2018-01-02T02:52:15.489Z,81.75
2018-01-02T02:54:46.157Z,81.42
2018-01-02T02:57:14.274Z,81.05
2018-01-02T02:59:42.042Z,80.47
2018-01-02T03:02:11.364Z,80.42
2018-01-02T03:04:40.950Z,79.98
2018-01-02T03:07:09.453Z,79.60
2018-01-02T03:09:37.316Z,79.58
2018-01-02T03:12:07.144Z,80.14
2018-01-02T03:14:36.721Z,80.00
2018-01-02T03:17:04.625Z,80.04
2018-01-02T03:19:32.389Z,80.28
2018-01-02T03:22:02.864Z,80.76
2018-01-02T03:24:30.675Z,82.14
2018-01-02T03:26:58.532Z,82.47
2018-01-02T03:29:27.040Z,83.19
2018-01-02T03:31:54.752Z,83.63
2018-01-02T03:34:25.338Z,84.02
2018-01-02T03:36:53.076Z,84.26
2018-01-02T03:39:20.949Z,84.19
2018-01-02T03:41:48.729Z,84.20
2018-01-02T03:44:16.523Z,84.16
2018-01-02T03:46:45.097Z,83.63
2018-01-02T03:49:14.621Z,83.39
2018-01-02T03:51:42.354Z,82.69
2018-01-02T03:54:11.715Z,82.47
2018-01-02T03:56:43.302Z,82.11
2018-01-02T03:59:11.107Z,81.70
2018-01-02T04:01:39.004Z,80.98
2018-01-02T04:04:06.768Z,80.47
2018-01-02T04:06:34.459Z,80.41
2018-01-02T04:09:02.327Z,80.65
2018-01-02T04:11:34.186Z,80.44
2018-01-02T04:14:02.011Z,80.66
2018-01-02T04:16:29.758Z,80.50
2018-01-02T04:18:57.653Z,80.39
2018-01-02T04:21:25.418Z,80.46
2018-01-02T04:23:53.148Z,80.33
2018-01-02T04:26:20.836Z,80.51
2018-01-02T04:28:48.600Z,80.37
2018-01-02T04:31:18.538Z,80.48
2018-01-02T04:33:48.241Z,80.56
2018-01-02T04:36:18.600Z,80.45
2018-01-02T04:38:46.498Z,80.42
2018-01-02T04:41:14.229Z,80.30
2018-01-02T04:43:42.809Z,80.48
2018-01-02T04:46:10.658Z,80.83
2018-01-02T04:48:39.250Z,80.51
2018-01-02T04:51:07.279Z,80.83
2018-01-02T04:53:35.118Z,80.73
2018-01-02T04:56:02.880Z,80.23
2018-01-02T04:58:30.869Z,80.58
2018-01-02T05:00:58.716Z,80.23
2018-01-02T05:03:27.000Z,79.79
2018-01-02T05:05:54.802Z,80.07
2018-01-02T05:08:24.883Z,80.05
2018-01-02T05:10:52.548Z,80.30
2018-01-02T05:13:20.256Z,80.99
2018-01-02T05:15:50.425Z,82.80
2018-01-02T05:18:18.198Z,83.92
2018-01-02T05:20:46.200Z,84.01
2018-01-02T05:23:14.029Z,84.67
2018-01-02T05:25:41.815Z,84.67
2018-01-02T05:28:09.562Z,84.33
2018-01-02T05:30:38.067Z,84.42
2018-01-02T05:33:05.825Z,84.93
2018-01-02T05:35:35.424Z,84.31
2018-01-02T05:38:05.158Z,84.16
2018-01-02T05:40:33.006Z,84.08
2018-01-02T05:43:00.777Z,84.98
2018-01-02T05:45:28.638Z,86.33
2018-01-02T05:47:56.645Z,87.32
2018-01-02T05:50:24.453Z,87.81
2018-01-02T05:52:52.178Z,88.11
2018-01-02T05:55:22.849Z,88.22
2018-01-02T05:57:50.659Z,88.55
2018-01-02T06:00:20.696Z,88.61
2018-01-02T06:02:48.641Z,88.51
2018-01-02T06:05:16.386Z,88.37
2018-01-02T06:07:48.761Z,88.39
2018-01-02T06:10:17.518Z,88.18
2018-01-02T06:12:46.202Z,88.11
2018-01-02T06:15:14.275Z,88.09
2018-01-02T06:17:43.965Z,87.84
2018-01-02T06:20:11.749Z,87.75
2018-01-02T06:22:39.500Z,87.71
2018-01-02T06:25:08.905Z,87.73
2018-01-02T06:27:38.653Z,88.09
2018-01-02T06:30:06.471Z,87.90
2018-01-02T06:32:34.395Z,88.04
2018-01-02T06:35:02.953Z,88.19
2018-01-02T06:37:31.096Z,88.34
2018-01-02T06:39:58.903Z,88.31
2018-01-02T06:42:28.742Z,88.76
2018-01-02T06:44:57.645Z,89.63
2018-01-02T06:47:25.377Z,90.22
2018-01-02T06:49:53.651Z,90.38
2018-01-02T06:52:23.134Z,90.78
2018-01-02T06:54:50.937Z,90.70
2018-01-02T06:57:19.717Z,90.90
2018-01-02T06:59:47.436Z,90.71
2018-01-02T07:02:15.336Z,90.96
2018-01-02T07:04:45.848Z,90.86
2018-01-02T07:07:15.460Z,90.67
2018-01-02T07:09:44.074Z,90.46
2018-01-02T07:12:11.853Z,90.15
2018-01-02T07:14:39.710Z,90.12
2018-01-02T07:17:07.432Z,90.01
2018-01-02T07:19:35.240Z,89.75
2018-01-02T07:22:04.831Z,89.78
2018-01-02T07:24:32.670Z,89.81
2018-01-02T07:27:00.477Z,90.15
2018-01-02T07:29:28.319Z,89.87
2018-01-02T07:31:57.910Z,89.82
2018-01-02T07:34:29.846Z,89.84
2018-01-02T07:36:57.903Z,89.23
2018-01-02T07:39:26.606Z,89.34
2018-01-02T07:41:56.204Z,89.54
2018-01-02T07:44:24.000Z,89.73
2018-01-02T07:46:51.966Z,89.63
2018-01-02T07:49:20.444Z,89.38
2018-01-02T07:51:50.997Z,89.32
2018-01-02T07:54:20.758Z,88.97
2018-01-02T07:56:48.676Z,89.16
2018-01-02T07:59:16.447Z,88.80
2018-01-02T08:01:44.678Z,89.22
2018-01-02T08:04:12.479Z,89.81
2018-01-02T08:06:40.975Z,89.88
2018-01-02T08:09:11.698Z,90.27
2018-01-02T08:11:39.557Z,90.91
2018-01-02T08:14:09.221Z,90.91
2018-01-02T08:16:37.173Z,90.85
2018-01-02T08:19:05.260Z,90.20
2018-01-02T08:21:33.696Z,90.57
2018-01-02T08:24:01.783Z,90.97
2018-01-02T08:26:30.883Z,91.07
2018-01-02T08:28:58.610Z,91.11
2018-01-02T08:31:27.373Z,90.59
2018-01-02T08:33:56.704Z,91.04
2018-01-02T08:36:27.099Z,91.27
2018-01-02T08:38:55.966Z,90.90
2018-01-02T08:41:25.552Z,91.07
2018-01-02T08:43:55.409Z,90.95
2018-01-02T08:46:25.038Z,91.62
2018-01-02T08:48:53.794Z,91.80
2018-01-02T08:51:21.662Z,91.82
2018-01-02T08:53:50.149Z,91.89
2018-01-02T08:56:18.066Z,91.80
2018-01-02T08:58:47.603Z,91.90
2018-01-02T09:01:17.409Z,92.09
2018-01-02T09:03:47.841Z,92.38
2018-01-02T09:06:17.156Z,92.30
2018-01-02T09:08:45.017Z,92.13
2018-01-02T09:11:12.744Z,92.51
2018-01-02T09:13:46.076Z,92.72
2018-01-02T09:16:14.690Z,92.49
2018-01-02T09:18:45.920Z,92.20
2018-01-02T09:21:13.876Z,91.85
2018-01-02T09:23:42.490Z,91.64
2018-01-02T09:26:12.922Z,91.28
2018-01-02T09:28:40.696Z,91.03
2018-01-02T09:31:08.606Z,90.76
2018-01-02T09:33:36.440Z,89.97
2018-01-02T09:36:05.523Z,89.78
2018-01-02T09:38:33.913Z,89.93
2018-01-02T09:41:01.684Z,89.92
2018-01-02T09:43:31.059Z,89.44
2018-01-02T09:46:00.372Z,89.27
2018-01-02T09:48:28.220Z,88.72
2018-01-02T09:50:57.726Z,88.59
2018-01-02T09:53:27.751Z,88.67
2018-01-02T09:55:55.580Z,88.21
2018-01-02T10:01:01.995Z,87.45
2018-01-02T10:03:30.530Z,87.29
2018-01-02T10:06:00.039Z,86.34
2018-01-02T10:08:31.382Z,86.44
2018-01-02T10:11:00.098Z,86.83
2018-01-02T10:13:28.554Z,86.76
2018-01-02T10:16:00.268Z,86.77
2018-01-02T10:18:29.104Z,86.58
2018-01-02T10:20:58.963Z,86.59
2018-01-02T10:23:26.666Z,87.00
2018-01-02T10:25:55.175Z,87.12
2018-01-02T10:28:22.988Z,87.79
2018-01-02T10:30:50.810Z,87.89
2018-01-02T10:33:19.370Z,86.92
2018-01-02T10:35:47.312Z,86.66
2018-01-02T10:38:16.859Z,86.40
2018-01-02T10:40:44.626Z,86.46
2018-01-02T10:43:12.475Z,86.42
2018-01-02T10:45:40.390Z,86.83
2018-01-02T10:48:09.857Z,87.74
2018-01-02T10:50:37.664Z,87.85
2018-01-02T10:53:08.125Z,88.23
2018-01-02T10:55:35.930Z,88.77
2018-01-02T10:58:04.044Z,89.23
2018-01-02T11:00:37.563Z,89.66
2018-01-02T11:03:05.642Z,90.27
2018-01-02T11:05:33.395Z,90.46
2018-01-02T11:08:01.436Z,90.68
2018-01-02T11:10:29.216Z,91.57
2018-01-02T11:12:56.907Z,91.60
2018-01-02T11:15:24.735Z,91.76
2018-01-02T11:17:52.627Z,91.38
2018-01-02T11:22:53.044Z,91.71
2018-01-02T11:25:20.931Z,92.15
2018-01-02T11:27:49.480Z,92.18
2018-01-02T11:30:17.321Z,91.30
2018-01-02T11:32:47.330Z,91.28
2018-01-02T11:35:17.833Z,91.69
2018-01-02T11:37:46.633Z,91.72
2018-01-02T11:40:16.186Z,91.46
2018-01-02T11:42:46.874Z,91.83
2018-01-02T11:45:14.714Z,92.07
2018-01-02T11:47:44.154Z,91.74
2018-01-02T11:50:12.070Z,91.87
2018-01-02T11:52:41.673Z,91.73
2018-01-02T11:55:09.629Z,91.18
2018-01-02T11:57:39.401Z,90.68
2018-01-02T12:00:07.322Z,90.90
2018-01-02T12:02:35.289Z,91.25
2018-01-02T12:05:04.746Z,91.12
2018-01-02T12:07:33.274Z,90.41
2018-01-02T12:10:02.711Z,90.20
2018-01-02T12:12:30.547Z,90.34
2018-01-02T12:15:06.206Z,90.20
2018-01-02T12:17:34.572Z,90.15
2018-01-02T12:20:04.186Z,90.65
2018-01-02T12:22:31.968Z,90.85
2018-01-02T12:24:59.728Z,91.46
2018-01-02T12:27:27.420Z,91.32
2018-01-02T12:29:55.164Z,92.05
2018-01-02T12:32:24.761Z,91.92
2018-01-02T12:34:58.143Z,92.09
2018-01-02T12:37:26.021Z,92.14
2018-01-02T12:39:53.811Z,92.15
2018-01-02T12:42:22.905Z,92.29
2018-01-02T12:44:51.491Z,92.58
2018-01-02T12:47:20.079Z,92.94
2018-01-02T12:49:48.668Z,92.90
2018-01-02T12:52:17.141Z,92.96
2018-01-02T12:54:45.644Z,93.03
2018-01-02T12:57:15.988Z,92.94
2018-01-02T12:59:44.523Z,92.83
2018-01-02T13:02:12.361Z,92.55
2018-01-02T13:04:41.796Z,91.54
2018-01-02T13:07:13.688Z,90.93
2018-01-02T13:09:44.167Z,90.65
2018-01-02T13:12:13.704Z,90.49
2018-01-02T13:14:44.670Z,89.38
2018-01-02T13:17:12.482Z,89.05
2018-01-02T13:19:40.218Z,87.92
2018-01-02T13:22:10.121Z,87.79
2018-01-02T13:24:38.005Z,88.31
2018-01-02T13:27:06.282Z,87.59
2018-01-02T13:29:37.818Z,86.61
2018-01-02T13:32:05.589Z,87.65
2018-01-02T13:34:35.179Z,86.97
2018-01-02T13:37:04.710Z,86.50
2018-01-02T13:39:34.334Z,85.00
2018-01-02T13:42:02.094Z,84.83
2018-01-02T13:44:30.072Z,85.69
2018-01-02T13:47:00.532Z,84.79
2018-01-02T13:49:28.360Z,84.50
2018-01-02T13:51:59.106Z,84.65
2018-01-02T13:54:26.950Z,84.42
2018-01-02T13:56:54.840Z,84.06
2018-01-02T13:59:22.604Z,82.99
2018-01-02T14:01:50.468Z,83.88
2018-01-02T14:04:19.338Z,82.33
2018-01-02T14:06:49.700Z,82.79
2018-01-02T14:09:19.498Z,82.36
2018-01-02T14:11:47.991Z,81.69
2018-01-02T14:14:15.908Z,82.51
2018-01-02T14:16:44.458Z,81.99
2018-01-02T14:19:12.428Z,81.33
2018-01-02T14:21:42.020Z,81.64
2018-01-02T14:24:10.118Z,82.13
2018-01-02T14:26:38.372Z,82.03
2018-01-02T14:29:06.274Z,82.23
2018-01-02T14:31:34.950Z,82.52
2018-01-02T14:34:03.074Z,81.59
2018-01-02T14:36:31.029Z,82.08
2018-01-02T14:38:58.799Z,82.67
2018-01-02T14:41:26.641Z,82.35
2018-01-02T14:43:56.482Z,81.81
2018-01-02T14:46:24.326Z,82.47
2018-01-02T14:48:54.246Z,82.30
2018-01-02T14:51:23.931Z,82.40
2018-01-02T14:53:51.817Z,82.64
2018-01-02T14:56:19.694Z,82.47
2018-01-02T14:58:47.548Z,82.70
2018-01-02T15:01:15.637Z,83.02
2018-01-02T15:03:45.331Z,83.21
2018-01-02T15:06:14.145Z,83.19
2018-01-02T15:08:42.044Z,82.62
2018-01-02T15:11:09.854Z,82.74
2018-01-02T15:13:37.626Z,82.32
2018-01-02T15:16:05.532Z,82.87
2018-01-02T15:18:33.896Z,82.46
2018-01-02T15:21:01.752Z,82.21
2018-01-02T15:23:31.379Z,82.57
2018-01-02T15:26:01.160Z,82.50
2018-01-02T15:28:29.083Z,81.99
2018-01-02T15:30:57.013Z,81.87
2018-01-02T15:33:26.647Z,81.85
2018-01-02T15:35:55.446Z,81.87
2018-01-02T15:38:25.114Z,82.24
2018-01-02T15:40:53.729Z,81.96
2018-01-02T15:43:22.315Z,82.45
2018-01-02T15:45:50.578Z,82.21
2018-01-02T15:48:18.455Z,81.98
2018-01-02T15:50:46.329Z,83.71
2018-01-02T15:53:15.840Z,85.94
2018-01-02T15:55:45.882Z,87.24
2018-01-02T15:58:13.856Z,87.84
2018-01-02T16:00:42.734Z,88.25
2018-01-02T16:03:10.432Z,88.69
2018-01-02T16:05:39.615Z,88.64
2018-01-02T16:08:09.954Z,88.36
2018-01-02T16:10:37.710Z,88.30
2018-01-02T16:13:05.450Z,88.35
2018-01-02T16:15:35.948Z,88.89
2018-01-02T16:18:06.513Z,88.09
2018-01-02T16:20:34.423Z,88.20
2018-01-02T16:23:02.180Z,88.36
2018-01-02T16:25:30.134Z,88.63
2018-01-02T16:27:58.638Z,88.12
2018-01-02T16:30:26.507Z,88.12
2018-01-02T16:32:54.233Z,88.18
2018-01-02T16:35:22.024Z,88.14
2018-01-02T16:37:49.777Z,87.88
2018-01-02T16:40:20.407Z,87.96
2018-01-02T16:42:49.026Z,87.89
2018-01-02T16:45:16.880Z,87.91
2018-01-02T16:47:44.741Z,87.86
2018-01-02T16:50:14.354Z,87.48
2018-01-02T16:52:42.258Z,87.33
2018-01-02T16:55:10.125Z,87.28
2018-01-02T16:57:39.559Z,87.28
2018-01-02T17:00:07.473Z,87.44
2018-01-02T17:02:35.292Z,87.19
2018-01-02T17:05:04.683Z,87.04
2018-01-02T17:07:32.634Z,87.31
2018-01-02T17:10:00.516Z,87.12
2018-01-02T17:12:28.383Z,87.52
2018-01-02T17:14:57.283Z,87.45
2018-01-02T17:17:25.863Z,87.76
2018-01-02T17:19:53.617Z,87.78
2018-01-02T17:22:21.402Z,87.65
2018-01-02T17:24:49.202Z,87.73
2018-01-02T17:27:17.025Z,87.97
2018-01-02T17:29:44.931Z,87.78
2018-01-02T17:32:14.495Z,87.75
2018-01-02T17:34:44.318Z,87.66
2018-01-02T17:37:12.183Z,87.60
2018-01-02T17:39:40.786Z,87.73
2018-01-02T17:42:08.777Z,87.59
2018-01-02T17:44:38.311Z,88.06
2018-01-02T17:47:06.117Z,88.29
2018-01-02T17:49:36.622Z,88.25
2018-01-02T17:52:04.524Z,88.62
2018-01-02T17:54:33.328Z,88.60
2018-01-02T17:57:02.997Z,88.81
2018-01-02T17:59:31.631Z,88.85
2018-01-02T18:02:01.147Z,89.02
2018-01-02T18:04:29.706Z,89.35
2018-01-02T18:06:57.470Z,89.05
2018-01-02T18:09:25.199Z,88.97
2018-01-02T18:11:56.244Z,89.00
2018-01-02T18:14:24.182Z,89.16
2018-01-02T18:16:53.074Z,88.64
2018-01-02T18:19:21.040Z,88.72
2018-01-02T18:21:48.940Z,88.70
2018-01-02T18:24:16.780Z,88.72
2018-01-02T18:26:44.625Z,88.78
2018-01-02T18:29:13.950Z,88.67
2018-01-02T18:31:41.865Z,88.69
2018-01-02T18:34:09.702Z,88.53
2018-01-02T18:36:37.708Z,88.51
2018-01-02T18:39:08.535Z,88.27
2018-01-02T18:41:38.190Z,88.19
2018-01-02T18:44:06.090Z,88.04
2018-01-02T18:46:34.312Z,87.83
2018-01-02T18:49:02.543Z,87.94
2018-01-02T18:51:32.336Z,87.80
2018-01-02T18:54:02.655Z,87.97
2018-01-02T18:56:30.861Z,87.83
2018-01-02T18:59:00.337Z,87.92
2018-01-02T19:01:28.227Z,87.80
2018-01-02T19:03:58.170Z,87.97
2018-01-02T19:06:26.228Z,87.68
2018-01-02T19:08:55.721Z,87.56
2018-01-02T19:11:24.021Z,87.45
2018-01-02T19:13:52.108Z,87.28
2018-01-02T19:16:20.280Z,87.08
2018-01-02T19:18:48.244Z,87.16
2018-01-02T19:21:16.431Z,87.00
2018-01-02T19:23:47.573Z,87.12
2018-01-02T19:26:15.651Z,86.97
2018-01-02T19:28:44.339Z,86.64
2018-01-02T19:31:14.382Z,86.70
2018-01-02T19:33:45.464Z,86.63
2018-01-02T19:36:15.480Z,86.94
2018-01-02T19:38:43.455Z,86.97
2018-01-02T19:41:15.948Z,86.96
2018-01-02T19:43:44.408Z,87.07
2018-01-02T19:46:12.550Z,87.29
2018-01-02T19:48:42.322Z,87.22
2018-01-02T19:51:10.577Z,87.32
2018-01-02T19:53:38.791Z,87.54
2018-01-02T19:56:08.964Z,87.81
2018-01-02T19:58:39.408Z,87.61
2018-01-02T20:01:07.582Z,87.93
2018-01-02T20:03:35.797Z,87.97
2018-01-02T20:06:05.336Z,88.05
2018-01-02T20:08:35.103Z,88.00
2018-01-02T20:11:03.360Z,88.13
2018-01-02T20:13:31.537Z,88.37
2018-01-02T20:15:59.716Z,88.43
2018-01-02T20:18:34.543Z,88.67
2018-01-02T20:21:02.617Z,88.60
2018-01-02T20:23:35.454Z,88.62
2018-01-02T20:26:07.157Z,88.60
2018-01-02T20:28:38.210Z,88.57
2018-01-02T20:31:08.018Z,88.60
2018-01-02T20:33:36.672Z,88.45
2018-01-02T20:36:04.788Z,88.41
2018-01-02T20:38:32.864Z,88.57
2018-01-02T20:41:01.001Z,88.51
2018-01-02T20:43:30.530Z,88.49
2018-01-02T20:45:59.514Z,88.47
2018-01-02T20:48:27.589Z,88.44
2018-01-02T20:50:57.799Z,88.56
2018-01-02T20:53:25.908Z,88.52
2018-01-02T20:55:58.192Z,88.67
2018-01-02T20:58:26.362Z,88.34
2018-01-02T21:00:54.468Z,88.44
2018-01-02T21:03:24.182Z,88.42
2018-01-02T21:05:52.368Z,88.43
2018-01-02T21:08:20.375Z,88.32
2018-01-02T21:10:49.165Z,88.42
2018-01-02T21:13:17.259Z,88.30
2018-01-02T21:15:45.738Z,88.46
2018-01-02T21:18:13.798Z,88.43
2018-01-02T21:20:41.893Z,88.45
2018-01-02T21:23:11.066Z,88.36
2018-01-02T21:25:41.812Z,88.40
2018-01-02T21:28:10.012Z,88.58
2018-01-02T21:30:38.867Z,88.27
2018-01-02T21:33:06.972Z,88.15
2018-01-02T21:35:35.154Z,88.16
2018-01-02T21:38:03.970Z,88.04
2018-01-02T21:40:32.118Z,88.11
2018-01-02T21:43:01.119Z,88.39
2018-01-02T21:45:30.028Z,88.48
2018-01-02T21:47:58.126Z,88.38
2018-01-02T21:50:27.433Z,88.15
2018-01-02T21:52:55.560Z,88.11
2018-01-02T21:55:25.332Z,88.02
2018-01-02T21:57:53.560Z,88.29
2018-01-02T22:00:21.950Z,88.28
2018-01-02T22:02:50.121Z,88.11
2018-01-02T22:05:18.293Z,88.23
2018-01-02T22:07:48.319Z,88.18
2018-01-02T22:10:16.802Z,88.03
2018-01-02T22:12:48.895Z,87.97
2018-01-02T22:15:19.644Z,88.07
2018-01-02T22:17:48.533Z,88.06
2018-01-02T22:20:19.527Z,87.86
2018-01-02T22:22:48.457Z,87.86
2018-01-02T22:25:16.494Z,87.92
2018-01-02T22:27:44.460Z,87.86
2018-01-02T22:30:12.319Z,87.99
2018-01-02T22:32:42.954Z,87.85
2018-01-02T22:35:10.978Z,87.89
2018-01-02T22:37:40.537Z,87.65
2018-01-02T22:40:08.433Z,87.35
2018-01-02T22:42:38.010Z,87.44
2018-01-02T22:45:06.321Z,87.31
2018-01-02T22:47:35.773Z,87.43
2018-01-02T22:50:03.695Z,87.49
2018-01-02T22:52:32.188Z,87.57
2018-01-02T22:55:00.040Z,87.64
2018-01-02T22:57:28.007Z,87.38
2018-01-02T22:59:55.892Z,86.66
2018-01-02T23:02:24.687Z,86.97
2018-01-02T23:04:53.264Z,87.26
2018-01-02T23:07:21.219Z,87.68
2018-01-02T23:09:48.987Z,87.55
2018-01-02T23:12:16.837Z,87.43
2018-01-02T23:14:47.472Z,87.02
2018-01-02T23:17:17.104Z,86.93
2018-01-02T23:19:45.328Z,86.90
2018-01-02T23:22:13.091Z,86.87
2018-01-02T23:24:42.700Z,86.80
2018-01-02T23:27:10.531Z,86.34
2018-01-02T23:29:38.271Z,86.26
2018-01-02T23:32:06.118Z,86.54
2018-01-02T23:34:33.948Z,87.23
2018-01-02T23:37:03.667Z,86.98
2018-01-02T23:39:32.481Z,86.51
2018-01-02T23:42:00.381Z,86.23
2018-01-02T23:44:28.326Z,85.99
2018-01-02T23:46:56.254Z,86.12
2018-01-02T23:49:26.007Z,86.31
2018-01-02T23:51:55.568Z,86.63
2018-01-02T23:54:23.645Z,86.28
2018-01-02T23:56:53.978Z,86.05
2018-01-02T23:59:21.954Z,86.33
